Time;durP1;ratioP1;P1;durP2;ratioP2;P2;SDS_P1;SDS_P2;PMS_P1;PMS_P2;Temp;Humidity;BMP_temperature;BMP_pressure;BME280_temperature;BME280_humidity;BME280_pressure;Samples;Min_cycle;Max_cycle;Signal;HPM_P1;HPM_P2
2023/03/08 00:00:46;;;;;;;0.30;0.30;;;3.50;99.90;;;;;;5076483;28;20460;-79
2023/03/08 00:03:14;;;;;;;0.70;0.50;;;3.50;99.90;;;;;;5076453;28;20452;-79
2023/03/08 00:05:41;;;;;;;0.90;0.60;;;3.50;99.90;;;;;;5076452;28;20456;-79
2023/03/08 00:08:07;;;;;;;2.00;0.87;;;3.50;99.90;;;;;;5076247;28;20522;-79
2023/03/08 00:10:37;;;;;;;1.00;0.67;;;3.40;99.90;;;;;;5076214;28;20476;-79
2023/03/08 00:13:03;;;;;;;1.37;0.83;;;3.40;99.90;;;;;;5076256;28;20456;-79
2023/03/08 00:15:30;;;;;;;1.60;1.43;;;3.50;99.90;;;;;;5075934;28;20444;-79
2023/03/08 00:17:57;;;;;;;1.93;0.70;;;3.50;99.90;;;;;;5076073;28;20493;-79
2023/03/08 00:20:23;;;;;;;0.47;0.40;;;3.50;99.90;;;;;;5076144;28;20452;-79
2023/03/08 00:22:50;;;;;;;0.40;0.40;;;3.50;99.90;;;;;;5075806;28;20955;-79
2023/03/08 00:25:17;;;;;;;0.60;0.60;;;3.50;99.90;;;;;;5076057;28;20465;-79
2023/03/08 00:27:45;;;;;;;0.60;0.50;;;3.50;99.90;;;;;;5075945;28;20460;-79
2023/03/08 00:30:13;;;;;;;3.33;0.63;;;3.40;99.90;;;;;;5075969;28;20445;-79
2023/03/08 00:32:39;;;;;;;1.97;1.33;;;3.40;99.90;;;;;;5075850;28;20591;-79
2023/03/08 00:35:07;;;;;;;1.57;0.70;;;3.30;99.90;;;;;;5075897;28;20450;-79
2023/03/08 00:37:33;;;;;;;0.57;0.57;;;3.20;99.90;;;;;;5075670;28;20461;-79
2023/03/08 00:40:00;;;;;;;1.23;0.83;;;3.10;99.90;;;;;;5075697;28;20453;-79
2023/03/08 00:42:27;;;;;;;0.33;0.30;;;3.10;99.90;;;;;;5075768;28;20445;-79
2023/03/08 00:44:55;;;;;;;1.57;0.57;;;2.90;99.90;;;;;;5075287;28;20485;-79
2023/03/08 00:47:22;;;;;;;0.60;0.30;;;2.90;99.90;;;;;;5075609;28;20472;-79
2023/03/08 00:49:49;;;;;;;1.20;0.90;;;2.90;99.90;;;;;;5075585;28;20457;-79
2023/03/08 00:52:16;;;;;;;0.40;0.30;;;2.90;99.90;;;;;;5075507;28;20558;-79
2023/03/08 00:54:42;;;;;;;1.07;1.07;;;2.90;99.90;;;;;;5075517;28;20481;-79
2023/03/08 00:57:09;;;;;;;1.03;0.80;;;2.80;99.90;;;;;;5075455;28;20506;-79
2023/03/08 00:59:36;;;;;;;0.60;0.40;;;2.70;99.90;;;;;;5075340;28;20449;-79
2023/03/08 01:02:04;;;;;;;0.53;0.47;;;2.70;99.90;;;;;;5075114;28;20847;-79
2023/03/08 01:04:33;;;;;;;0.40;0.37;;;2.70;99.90;;;;;;5075383;28;20457;-79
2023/03/08 01:07:00;;;;;;;2.00;0.80;;;2.70;99.90;;;;;;5075712;28;20500;-79
2023/03/08 01:09:27;;;;;;;0.67;0.40;;;2.70;99.90;;;;;;5074880;28;20959;-79
2023/03/08 01:11:53;;;;;;;0.30;0.30;;;2.60;99.90;;;;;;5074589;28;20484;-79
2023/03/08 01:14:20;;;;;;;1.70;0.77;;;2.70;99.90;;;;;;5075168;28;20450;-79
2023/03/08 01:16:47;;;;;;;0.47;0.47;;;2.60;99.90;;;;;;5075113;28;20454;-79
2023/03/08 01:19:15;;;;;;;1.37;0.50;;;2.60;99.90;;;;;;5074633;28;21007;-79
2023/03/08 01:21:42;;;;;;;0.30;0.20;;;2.60;99.90;;;;;;5075042;28;20448;-79
2023/03/08 01:24:08;;;;;;;0.40;0.40;;;2.60;99.90;;;;;;5074934;28;20452;-79
2023/03/08 01:26:35;;;;;;;0.50;0.50;;;2.50;99.90;;;;;;5074629;28;20449;-79
2023/03/08 01:29:02;;;;;;;0.30;0.30;;;2.50;99.90;;;;;;5074725;28;20476;-79
2023/03/08 01:31:30;;;;;;;0.50;0.50;;;2.50;99.90;;;;;;5074426;28;21012;-79
2023/03/08 01:33:57;;;;;;;0.50;0.50;;;2.60;99.90;;;;;;5074766;28;20457;-79
2023/03/08 01:36:27;;;;;;;2.10;0.60;;;2.50;99.90;;;;;;5074426;28;20441;-79
2023/03/08 01:38:55;;;;;;;0.57;0.57;;;2.50;99.90;;;;;;5074778;28;20481;-79
2023/03/08 01:41:23;;;;;;;0.43;0.43;;;2.50;99.90;;;;;;5074583;28;20446;-79
2023/03/08 01:43:50;;;;;;;0.40;0.40;;;2.50;99.90;;;;;;5074193;28;20477;-79
2023/03/08 01:46:24;;;;;;;0.40;0.40;;;2.50;99.90;;;;;;5074500;28;20446;-79
2023/03/08 01:48:55;;;;;;;0.50;0.50;;;2.40;99.90;;;;;;5074090;28;20477;-79
2023/03/08 01:51:30;;;;;;;2.50;0.67;;;2.40;99.90;;;;;;5074361;28;20430;-79
2023/03/08 01:53:59;;;;;;;0.40;0.40;;;2.30;99.90;;;;;;5074367;28;20436;-79
2023/03/08 01:56:26;;;;;;;0.30;0.20;;;2.30;99.90;;;;;;5074282;28;20446;-79
2023/03/08 01:58:54;;;;;;;4.73;1.07;;;2.30;99.90;;;;;;5074084;28;20466;-79
2023/03/08 02:01:21;;;;;;;0.30;0.20;;;2.20;99.90;;;;;;5073880;28;20450;-79
2023/03/08 02:03:48;;;;;;;0.40;0.37;;;2.20;99.90;;;;;;5073857;28;20949;-79
2023/03/08 02:06:16;;;;;;;0.50;0.50;;;2.10;99.90;;;;;;5074093;28;20441;-79
2023/03/08 02:08:45;;;;;;;6.13;0.60;;;2.10;99.90;;;;;;5074000;28;20809;-79
2023/03/08 02:11:14;;;;;;;0.60;0.40;;;2.10;99.90;;;;;;5074025;28;20453;-79
2023/03/08 02:13:41;;;;;;;0.30;0.30;;;2.10;99.90;;;;;;5074025;28;20521;-79
2023/03/08 02:16:11;;;;;;;1.73;1.63;;;2.10;99.90;;;;;;5073934;28;20454;-79
2023/03/08 02:18:37;;;;;;;0.83;0.83;;;2.10;99.90;;;;;;5073490;28;20996;-79
2023/03/08 02:21:04;;;;;;;0.40;0.40;;;2.20;99.90;;;;;;5073830;28;20449;-79
2023/03/08 02:23:32;;;;;;;0.70;0.40;;;2.20;99.90;;;;;;5072985;28;20445;-79
2023/03/08 02:26:03;;;;;;;0.63;0.63;;;2.20;99.90;;;;;;5073790;28;20449;-79
2023/03/08 02:28:30;;;;;;;1.90;0.70;;;2.20;99.90;;;;;;5073669;28;20473;-79
2023/03/08 02:30:58;;;;;;;2.70;0.70;;;2.30;99.90;;;;;;5073405;28;20449;-79
2023/03/08 02:33:25;;;;;;;0.53;0.53;;;2.30;99.90;;;;;;5073642;28;20481;-79
2023/03/08 02:35:51;;;;;;;0.40;0.37;;;2.30;99.90;;;;;;5073645;28;20450;-79
2023/03/08 02:38:20;;;;;;;0.50;0.50;;;2.30;99.90;;;;;;5073529;28;20491;-79
2023/03/08 02:40:50;;;;;;;1.83;0.60;;;2.40;99.90;;;;;;5073561;28;20456;-79
2023/03/08 02:43:17;;;;;;;0.30;0.30;;;2.50;99.90;;;;;;5073207;28;20481;-79
2023/03/08 02:45:44;;;;;;;11.20;1.70;;;2.50;99.90;;;;;;5073551;28;20464;-79
2023/03/08 02:48:11;;;;;;;0.50;0.40;;;2.50;99.90;;;;;;5073460;28;20539;-79
2023/03/08 02:50:38;;;;;;;4.47;0.73;;;2.50;99.90;;;;;;5073502;28;20445;-79
2023/03/08 02:53:05;;;;;;;0.63;0.63;;;2.60;99.90;;;;;;5073375;28;20480;-79
2023/03/08 02:55:34;;;;;;;0.37;0.33;;;2.60;99.90;;;;;;5073149;28;20454;-79
2023/03/08 02:58:03;;;;;;;3.60;0.90;;;2.60;99.90;;;;;;5073313;28;20470;-79
2023/03/08 03:00:29;;;;;;;0.30;0.30;;;2.70;99.90;;;;;;5073019;28;20453;-79
2023/03/08 03:02:56;;;;;;;0.70;0.70;;;2.70;99.90;;;;;;5073307;28;20623;-79
2023/03/08 03:05:23;;;;;;;0.40;0.30;;;2.80;99.90;;;;;;5073326;28;20525;-79
2023/03/08 03:07:49;;;;;;;0.30;0.30;;;2.80;99.90;;;;;;5073191;28;20473;-79
2023/03/08 03:10:16;;;;;;;0.70;0.50;;;2.80;99.90;;;;;;5073330;28;20851;-79
2023/03/08 03:12:43;;;;;;;0.30;0.30;;;2.90;99.90;;;;;;5073142;28;20481;-79
2023/03/08 03:15:12;;;;;;;1.33;0.60;;;2.90;99.90;;;;;;5072933;28;20453;-79
2023/03/08 03:17:39;;;;;;;0.70;0.70;;;2.90;99.90;;;;;;5072790;28;20471;-79
2023/03/08 03:20:07;;;;;;;0.50;0.43;;;3.00;99.90;;;;;;5073173;28;20445;-79
2023/03/08 03:22:34;;;;;;;0.40;0.40;;;3.00;99.90;;;;;;5073137;28;20445;-79
2023/03/08 03:25:01;;;;;;;1.23;0.50;;;3.00;99.90;;;;;;5073164;28;20449;-79
2023/03/08 03:27:28;;;;;;;0.70;0.60;;;3.00;99.90;;;;;;5073028;28;20476;-79
2023/03/08 03:29:55;;;;;;;1.23;0.80;;;3.00;99.90;;;;;;5073051;28;20456;-79
2023/03/08 03:32:23;;;;;;;1.20;1.10;;;3.00;99.90;;;;;;5072950;28;20485;-79
2023/03/08 03:34:50;;;;;;;0.67;0.60;;;2.90;99.90;;;;;;5075212;28;20537;-79
2023/03/08 03:37:17;;;;;;;5.90;0.77;;;3.00;99.90;;;;;;5076528;28;20831;-79
2023/03/08 03:39:44;;;;;;;0.50;0.50;;;3.00;99.90;;;;;;5077541;28;20438;-79
2023/03/08 03:42:11;;;;;;;1.70;1.60;;;2.90;99.90;;;;;;5076542;28;20448;-79
2023/03/08 03:44:38;;;;;;;4.73;0.43;;;2.80;99.90;;;;;;5076421;28;20485;-79
2023/03/08 03:47:05;;;;;;;0.30;0.30;;;2.80;99.90;;;;;;5076704;28;20449;-79
2023/03/08 03:49:33;;;;;;;1.80;1.43;;;2.70;99.90;;;;;;5076745;28;20449;-79
2023/03/08 03:51:59;;;;;;;0.30;0.30;;;2.70;99.90;;;;;;5076333;28;20933;-79
2023/03/08 03:54:26;;;;;;;2.00;0.50;;;2.70;99.90;;;;;;5076653;28;20456;-79
2023/03/08 03:56:56;;;;;;;1.70;1.63;;;2.60;99.90;;;;;;5076641;28;20449;-79
2023/03/08 03:59:23;;;;;;;1.27;1.03;;;2.60;99.90;;;;;;5076123;28;20469;-79
2023/03/08 04:01:50;;;;;;;7.93;0.87;;;2.60;99.90;;;;;;5076202;28;20437;-79
2023/03/08 04:04:18;;;;;;;0.40;0.40;;;2.60;99.90;;;;;;5076502;28;20498;-79
2023/03/08 04:06:46;;;;;;;1.50;0.90;;;2.60;99.90;;;;;;5076101;28;20945;-79
2023/03/08 04:09:15;;;;;;;0.87;0.53;;;2.60;99.90;;;;;;5076338;28;20469;-79
2023/03/08 04:11:42;;;;;;;1.40;0.60;;;2.60;99.90;;;;;;5076352;28;20456;-79
2023/03/08 04:14:09;;;;;;;0.30;0.30;;;2.60;99.90;;;;;;5075925;28;20492;-79
2023/03/08 04:16:38;;;;;;;0.60;0.60;;;2.70;99.90;;;;;;5076250;28;20844;-79
2023/03/08 04:19:07;;;;;;;0.40;0.30;;;2.70;99.90;;;;;;5076168;28;20469;-79
2023/03/08 04:21:34;;;;;;;2.70;0.57;;;2.70;99.90;;;;;;5076159;28;20445;-79
2023/03/08 04:24:03;;;;;;;0.77;0.43;;;2.70;99.90;;;;;;5076220;28;20441;-79
2023/03/08 04:26:30;;;;;;;2.30;1.47;;;2.70;99.90;;;;;;5075704;28;20441;-79
2023/03/08 04:28:57;;;;;;;0.40;0.40;;;2.60;99.90;;;;;;5075686;28;20984;-79
2023/03/08 04:31:26;;;;;;;0.40;0.30;;;2.60;99.90;;;;;;5076017;28;20449;-79
2023/03/08 04:33:53;;;;;;;0.60;0.40;;;2.60;99.90;;;;;;5075561;28;20999;-79
2023/03/08 04:36:20;;;;;;;5.53;1.00;;;2.50;99.90;;;;;;5075930;28;20468;-79
2023/03/08 04:38:48;;;;;;;0.60;0.60;;;2.50;99.90;;;;;;5075511;28;20988;-79
2023/03/08 04:41:16;;;;;;;1.47;1.40;;;2.50;99.90;;;;;;5075845;28;20449;-79
2023/03/08 04:43:46;;;;;;;0.77;0.70;;;2.50;99.90;;;;;;5075455;28;20485;-79
2023/03/08 04:46:13;;;;;;;1.10;1.00;;;2.60;99.90;;;;;;5074776;28;20446;-79
2023/03/08 04:48:40;;;;;;;0.47;0.40;;;2.60;99.90;;;;;;5075465;28;20465;-79
2023/03/08 04:51:08;;;;;;;0.70;0.70;;;2.60;99.90;;;;;;5075699;28;20452;-79
2023/03/08 04:53:35;;;;;;;0.30;0.30;;;2.70;99.90;;;;;;5075530;28;20481;-79
2023/03/08 04:56:02;;;;;;;1.53;0.40;;;2.70;99.90;;;;;;5075310;28;20937;-79
2023/03/08 04:58:31;;;;;;;2.00;0.80;;;2.70;99.90;;;;;;5075405;28;20466;-79
2023/03/08 05:00:58;;;;;;;0.50;0.50;;;2.70;99.90;;;;;;5075443;28;20450;-79
2023/03/08 05:03:25;;;;;;;1.70;0.63;;;2.70;99.90;;;;;;5075366;28;20528;-79
2023/03/08 05:05:53;;;;;;;1.63;0.83;;;2.80;99.90;;;;;;5075340;28;20449;-79
2023/03/08 05:08:21;;;;;;;0.50;0.50;;;2.80;99.90;;;;;;5074880;28;20840;-78
2023/03/08 05:10:49;;;;;;;0.30;0.30;;;2.80;99.90;;;;;;5074958;28;20967;-78
2023/03/08 05:13:16;;;;;;;0.33;0.27;;;2.80;99.90;;;;;;5074975;28;20477;-79
2023/03/08 05:15:44;;;;;;;0.47;0.47;;;2.80;99.90;;;;;;5075162;28;20449;-78
2023/03/08 05:18:11;;;;;;;0.37;0.37;;;2.80;99.90;;;;;;5075116;28;20469;-79
2023/03/08 05:20:37;;;;;;;2.20;0.53;;;2.90;99.90;;;;;;5075115;28;20461;-79
2023/03/08 05:23:04;;;;;;;1.20;0.63;;;2.90;99.90;;;;;;5075020;28;20456;-79
2023/03/08 05:25:32;;;;;;;0.40;0.40;;;2.90;99.90;;;;;;5074998;28;20452;-79
2023/03/08 05:27:59;;;;;;;0.37;0.37;;;2.80;99.90;;;;;;5074847;28;20496;-79
2023/03/08 05:30:26;;;;;;;1.23;1.07;;;2.80;99.90;;;;;;5074599;28;20457;-79
2023/03/08 05:32:54;;;;;;;0.77;0.63;;;3.00;99.90;;;;;;5074738;28;20481;-79
2023/03/08 05:35:21;;;;;;;2.87;1.20;;;3.00;99.90;;;;;;5074467;28;20937;-79
2023/03/08 05:37:47;;;;;;;0.50;0.50;;;3.00;99.90;;;;;;5074624;28;20469;-79
2023/03/08 05:40:14;;;;;;;0.40;0.40;;;3.10;99.90;;;;;;5074698;28;20441;-79
2023/03/08 05:42:41;;;;;;;0.70;0.70;;;3.10;99.90;;;;;;5074091;28;20449;-79
2023/03/08 05:45:08;;;;;;;0.50;0.50;;;3.10;99.90;;;;;;5074634;28;20430;-78
2023/03/08 05:47:35;;;;;;;2.87;0.87;;;3.00;99.90;;;;;;5074121;28;20470;-78
2023/03/08 05:50:03;;;;;;;0.30;0.30;;;3.00;99.90;;;;;;5074185;28;20437;-79
2023/03/08 05:52:30;;;;;;;0.40;0.30;;;3.00;99.90;;;;;;5074365;28;20445;-79
2023/03/08 05:54:57;;;;;;;4.20;0.60;;;3.10;99.90;;;;;;5074085;28;20648;-78
2023/03/08 05:57:24;;;;;;;0.60;0.50;;;3.10;99.90;;;;;;5074104;28;20469;-79
2023/03/08 05:59:51;;;;;;;0.73;0.50;;;3.10;99.90;;;;;;5073978;28;20441;-79
2023/03/08 06:02:17;;;;;;;0.63;0.60;;;3.10;99.90;;;;;;5074231;28;20453;-78
2023/03/08 06:04:44;;;;;;;9.83;1.40;;;3.10;99.90;;;;;;5074157;28;20438;-79
2023/03/08 06:07:12;;;;;;;1.77;1.13;;;3.10;99.90;;;;;;5073884;28;20449;-79
2023/03/08 06:09:39;;;;;;;4.33;0.50;;;3.10;99.90;;;;;;5074085;28;20441;-78
2023/03/08 06:12:06;;;;;;;0.67;0.50;;;3.20;99.90;;;;;;5073741;28;20815;-78
2023/03/08 06:14:33;;;;;;;0.30;0.30;;;3.20;99.90;;;;;;5073645;28;21012;-78
2023/03/08 06:16:59;;;;;;;2.87;0.93;;;3.30;99.90;;;;;;5073963;28;20472;-79
2023/03/08 06:19:26;;;;;;;0.50;0.40;;;3.30;99.90;;;;;;5073825;28;20476;-77
2023/03/08 06:21:53;;;;;;;4.63;1.07;;;3.30;99.90;;;;;;5073515;28;20945;-77
2023/03/08 06:24:21;;;;;;;0.77;0.77;;;3.30;99.90;;;;;;5073832;28;20468;-77
2023/03/08 06:26:48;;;;;;;0.70;0.60;;;3.30;99.90;;;;;;5074122;28;20444;-77
2023/03/08 06:29:14;;;;;;;0.93;0.87;;;3.30;99.90;;;;;;5073709;28;20461;-77
2023/03/08 06:31:41;;;;;;;0.50;0.50;;;3.30;99.90;;;;;;5073423;28;20456;-77
2023/03/08 06:34:08;;;;;;;4.00;0.47;;;3.40;99.90;;;;;;5073657;28;20852;-77
2023/03/08 06:36:35;;;;;;;0.60;0.50;;;3.50;99.90;;;;;;5073641;28;20450;-77
2023/03/08 06:39:02;;;;;;;2.10;1.03;;;3.50;99.90;;;;;;5073265;28;20952;-77
2023/03/08 06:41:30;;;;;;;2.50;0.57;;;3.50;99.90;;;;;;5073242;28;20945;-77
2023/03/08 06:43:56;;;;;;;0.67;0.67;;;3.60;99.90;;;;;;5073215;28;20852;-77
2023/03/08 06:46:23;;;;;;;0.73;0.70;;;3.60;99.90;;;;;;5073520;28;20445;-77
2023/03/08 06:48:50;;;;;;;0.87;0.60;;;3.60;99.90;;;;;;5073120;28;20465;-77
2023/03/08 06:51:17;;;;;;;0.70;0.70;;;3.60;99.90;;;;;;5073101;28;20945;-77
2023/03/08 06:53:44;;;;;;;1.43;1.43;;;3.70;99.90;;;;;;5073395;28;20513;-77
2023/03/08 06:56:13;;;;;;;1.40;0.47;;;3.80;99.90;;;;;;5073393;28;20452;-77
2023/03/08 06:58:42;;;;;;;5.70;1.27;;;3.80;99.90;;;;;;5073341;28;20469;-77
2023/03/08 07:01:09;;;;;;;2.20;0.60;;;3.90;99.90;;;;;;5073371;28;20446;-77
2023/03/08 07:03:36;;;;;;;0.93;0.80;;;3.90;99.90;;;;;;5073369;28;20453;-77
2023/03/08 07:06:05;;;;;;;1.83;0.50;;;3.90;99.90;;;;;;5073001;28;20965;-77
2023/03/08 07:08:32;;;;;;;0.60;0.50;;;4.00;99.90;;;;;;5072660;28;20820;-77
2023/03/08 07:10:59;;;;;;;1.40;1.30;;;4.00;99.90;;;;;;5073243;28;20445;-77
2023/03/08 07:13:27;;;;;;;0.60;0.57;;;4.00;99.90;;;;;;5073198;28;20484;-79
2023/03/08 07:15:56;;;;;;;0.93;0.80;;;4.10;99.90;;;;;;5073215;28;20450;-78
2023/03/08 07:18:23;;;;;;;1.57;0.50;;;4.10;99.90;;;;;;5073151;28;20465;-78
2023/03/08 07:20:52;;;;;;;6.23;0.83;;;4.20;99.90;;;;;;5073196;28;20453;-78
2023/03/08 07:23:19;;;;;;;0.83;0.83;;;4.30;99.90;;;;;;5073127;28;20450;-78
2023/03/08 07:25:46;;;;;;;0.50;0.50;;;4.40;99.90;;;;;;5073137;28;20441;-78
2023/03/08 07:28:12;;;;;;;1.40;0.93;;;4.40;99.90;;;;;;5073049;28;20465;-79
2023/03/08 07:30:39;;;;;;;4.40;0.80;;;4.50;99.90;;;;;;5073099;28;20472;-78
2023/03/08 07:33:07;;;;;;;0.70;0.70;;;4.50;99.90;;;;;;5072903;28;20452;-79
2023/03/08 07:35:34;;;;;;;2.40;0.60;;;4.40;99.90;;;;;;5072934;28;20813;-79
2023/03/08 07:38:01;;;;;;;5.60;1.47;;;4.40;99.90;;;;;;5072916;28;20469;-79
2023/03/08 07:40:27;;;;;;;0.40;0.40;;;4.50;99.90;;;;;;5072711;28;20949;-79
2023/03/08 07:42:56;;;;;;;2.97;0.60;;;4.50;99.90;;;;;;5072714;28;20478;-79
2023/03/08 07:45:23;;;;;;;1.83;0.90;;;4.50;99.90;;;;;;5072985;28;20429;-79
2023/03/08 07:47:51;;;;;;;1.17;0.60;;;4.50;99.90;;;;;;5072847;28;20523;-79
2023/03/08 07:50:19;;;;;;;0.63;0.50;;;4.50;99.90;;;;;;5072653;28;20503;-79
2023/03/08 07:52:46;;;;;;;0.50;0.40;;;4.50;99.90;;;;;;5072593;28;20971;-79
2023/03/08 07:55:13;;;;;;;0.83;0.50;;;4.50;99.90;;;;;;5072526;28;20480;-79
2023/03/08 07:57:40;;;;;;;0.37;0.30;;;4.50;99.90;;;;;;5072759;28;20470;-79
2023/03/08 08:00:08;;;;;;;0.93;0.70;;;4.60;99.90;;;;;;5072735;28;20454;-79
2023/03/08 08:02:35;;;;;;;0.90;0.77;;;4.70;99.90;;;;;;5072817;28;20449;-78
2023/03/08 08:05:02;;;;;;;1.50;0.70;;;4.70;99.90;;;;;;5072844;28;20513;-79
2023/03/08 08:07:31;;;;;;;2.13;0.77;;;4.70;99.90;;;;;;5072653;28;20473;-79
2023/03/08 08:09:57;;;;;;;0.97;0.63;;;4.60;99.90;;;;;;5072424;28;20453;-79
2023/03/08 08:12:24;;;;;;;0.97;0.87;;;4.70;99.90;;;;;;5072384;28;20971;-78
2023/03/08 08:14:51;;;;;;;0.73;0.70;;;4.70;99.90;;;;;;5072644;28;20480;-78
2023/03/08 08:17:19;;;;;;;1.03;0.60;;;4.70;99.90;;;;;;5072256;28;20618;-79
2023/03/08 08:19:45;;;;;;;0.67;0.67;;;4.70;99.90;;;;;;5072627;28;20452;-78
2023/03/08 08:22:12;;;;;;;1.03;0.50;;;4.90;99.90;;;;;;5075043;28;20445;-79
2023/03/08 08:24:40;;;;;;;1.10;0.93;;;5.00;99.90;;;;;;5075840;28;20449;-79
2023/03/08 08:27:07;;;;;;;0.83;0.63;;;5.10;99.90;;;;;;5076035;28;20456;-79
2023/03/08 08:29:34;;;;;;;0.60;0.60;;;5.10;99.90;;;;;;5075749;28;20445;-78
2023/03/08 08:32:02;;;;;;;1.60;0.83;;;5.20;99.90;;;;;;5076049;28;20453;-79
2023/03/08 08:34:29;;;;;;;1.70;0.60;;;5.10;99.90;;;;;;5076236;28;20916;-78
2023/03/08 08:36:56;;;;;;;1.43;0.70;;;5.20;99.90;;;;;;5075951;28;20454;-79
2023/03/08 08:39:23;;;;;;;5.77;0.80;;;5.30;99.90;;;;;;5075506;28;20497;-78
2023/03/08 08:41:51;;;;;;;2.93;0.90;;;5.30;99.90;;;;;;5075868;28;20461;-79
2023/03/08 08:44:17;;;;;;;0.53;0.47;;;5.40;99.90;;;;;;5075307;28;20477;-78
2023/03/08 08:46:44;;;;;;;1.23;1.00;;;5.50;99.90;;;;;;5075816;28;20445;-79
2023/03/08 08:49:11;;;;;;;0.60;0.30;;;5.70;99.90;;;;;;5075697;28;20465;-78
2023/03/08 08:51:38;;;;;;;0.77;0.77;;;5.80;99.90;;;;;;5075672;28;20453;-79
2023/03/08 08:54:04;;;;;;;0.50;0.50;;;5.80;99.90;;;;;;5075597;28;20477;-79
2023/03/08 08:56:31;;;;;;;7.80;0.73;;;5.90;99.90;;;;;;5075578;28;20465;-79
2023/03/08 08:59:01;;;;;;;1.23;0.83;;;6.00;99.90;;;;;;5075178;28;20466;-80
2023/03/08 09:01:31;;;;;;;3.90;0.70;;;5.90;99.90;;;;;;5075395;28;20821;-78
2023/03/08 09:03:58;;;;;;;1.63;0.80;;;6.00;99.90;;;;;;5075228;28;20917;-78
2023/03/08 09:06:25;;;;;;;2.00;0.80;;;5.90;99.90;;;;;;5075418;28;20548;-78
2023/03/08 09:08:54;;;;;;;2.43;0.93;;;5.90;99.90;;;;;;5075346;28;20474;-77
2023/03/08 09:11:21;;;;;;;5.70;0.97;;;5.90;99.90;;;;;;5074971;28;21043;-78
2023/03/08 09:13:48;;;;;;;3.23;1.17;;;5.80;99.90;;;;;;5075234;28;20469;-78
2023/03/08 09:16:22;;;;;;;5.50;0.73;;;5.80;99.90;;;;;;5075175;28;20453;-78
2023/03/08 09:18:49;;;;;;;1.70;0.60;;;5.70;99.90;;;;;;5075232;28;20493;-78
2023/03/08 09:21:16;;;;;;;3.70;1.47;;;5.70;99.90;;;;;;5075119;28;20450;-78
2023/03/08 09:23:43;;;;;;;1.03;0.80;;;5.90;99.90;;;;;;5075081;28;20807;-78
2023/03/08 09:26:10;;;;;;;0.80;0.50;;;5.90;99.90;;;;;;5075120;28;20437;-78
2023/03/08 09:28:37;;;;;;;0.70;0.63;;;6.00;99.90;;;;;;5074896;28;20874;-78
2023/03/08 09:31:10;;;;;;;1.17;1.07;;;6.10;99.90;;;;;;5074746;28;20457;-78
2023/03/08 09:33:39;;;;;;;4.10;1.43;;;6.20;99.90;;;;;;5074683;28;20441;-78
2023/03/08 09:36:06;;;;;;;1.60;0.67;;;6.30;99.90;;;;;;5074522;28;20831;-78
2023/03/08 09:38:32;;;;;;;0.90;0.47;;;6.40;99.90;;;;;;5074752;28;20473;-78
2023/03/08 09:41:27;;;;;;;3.10;0.50;;;6.40;99.90;;;;;;5074700;28;20445;-78
2023/03/08 09:44:04;;;;;;;2.73;0.90;;;6.50;99.90;;;;;;5074104;28;21029;-78
2023/03/08 09:46:35;;;;;;;1.27;0.93;;;6.60;99.90;;;;;;5074255;28;20814;-78
2023/03/08 09:49:11;;;;;;;1.67;0.67;;;6.70;99.90;;;;;;5074153;28;20476;-78
2023/03/08 09:51:42;;;;;;;0.87;0.70;;;6.80;99.90;;;;;;5074204;28;20941;-78
2023/03/08 09:54:14;;;;;;;1.30;1.10;;;6.90;99.90;;;;;;5074093;28;20836;-78
2023/03/08 09:56:45;;;;;;;1.77;1.03;;;7.00;99.90;;;;;;5074166;28;20433;-78
2023/03/08 09:59:16;;;;;;;0.90;0.90;;;7.20;99.90;;;;;;5074324;28;20477;-78
2023/03/08 10:01:50;;;;;;;0.57;0.50;;;7.40;99.90;;;;;;5074386;28;20441;-78
2023/03/08 10:04:43;;;;;;;1.57;0.73;;;7.50;99.90;;;;;;5074313;28;20448;-78
2023/03/08 10:07:21;;;;;;;0.50;0.30;;;7.50;99.90;;;;;;5073831;28;20925;-78
2023/03/08 10:09:55;;;;;;;0.60;0.60;;;7.60;99.90;;;;;;5074196;28;20479;-78
2023/03/08 10:12:28;;;;;;;1.83;0.90;;;7.50;99.90;;;;;;5073814;28;20426;-79
2023/03/08 10:15:00;;;;;;;1.00;0.40;;;7.50;99.90;;;;;;5074020;28;20538;-78
2023/03/08 10:17:37;;;;;;;0.90;0.50;;;7.60;99.90;;;;;;5073978;28;20472;-78
2023/03/08 10:20:16;;;;;;;0.53;0.50;;;7.70;99.90;;;;;;5073710;28;20916;-78
2023/03/08 10:22:44;;;;;;;0.70;0.70;;;7.70;99.90;;;;;;5074210;28;20449;-78
2023/03/08 10:25:21;;;;;;;0.40;0.30;;;7.60;99.90;;;;;;5073600;28;21108;-79
2023/03/08 10:27:51;;;;;;;1.67;1.07;;;7.60;99.90;;;;;;5073806;28;20469;-78
2023/03/08 10:30:19;;;;;;;0.90;0.40;;;7.70;99.90;;;;;;5073786;28;20884;-78
2023/03/08 10:32:48;;;;;;;4.93;0.70;;;7.70;99.90;;;;;;5073410;28;20964;-78
2023/03/08 10:35:17;;;;;;;1.57;0.40;;;7.60;99.90;;;;;;5073620;28;20481;-79
2023/03/08 10:37:51;;;;;;;0.40;0.30;;;7.70;99.90;;;;;;5073557;28;20481;-79
2023/03/08 10:40:21;;;;;;;0.30;0.20;;;7.80;99.90;;;;;;5073635;28;20438;-79
2023/03/08 10:42:53;;;;;;;0.70;0.57;;;8.00;99.90;;;;;;5073697;28;20438;-79
2023/03/08 10:45:23;;;;;;;1.27;0.80;;;8.30;99.90;;;;;;5072925;28;20866;-79
2023/03/08 10:47:55;;;;;;;0.60;0.60;;;8.70;99.90;;;;;;5073474;28;20469;-79
2023/03/08 10:50:25;;;;;;;0.40;0.33;;;8.90;99.90;;;;;;5073586;28;20433;-79
2023/03/08 10:52:52;;;;;;;0.40;0.30;;;9.00;99.90;;;;;;5073516;28;20493;-79
2023/03/08 10:55:21;;;;;;;0.50;0.50;;;9.10;99.90;;;;;;5073394;28;20485;-79
2023/03/08 10:57:53;;;;;;;0.30;0.30;;;9.10;99.90;;;;;;5073427;28;20469;-79
2023/03/08 11:00:36;;;;;;;0.50;0.40;;;9.10;99.90;;;;;;5073462;28;20477;-79
2023/03/08 11:03:14;;;;;;;0.30;0.30;;;9.10;99.90;;;;;;5071515;28;20805;-79
2023/03/08 11:05:51;;;;;;;0.30;0.30;;;9.20;99.90;;;;;;5073416;28;20448;-80
2023/03/08 11:08:20;;;;;;;0.30;0.30;;;9.30;99.90;;;;;;5073283;28;20460;-79
2023/03/08 11:10:47;;;;;;;0.30;0.30;;;9.40;99.90;;;;;;5073310;28;20441;-79
2023/03/08 11:13:28;;;;;;;0.60;0.40;;;9.60;99.90;;;;;;5073255;28;20479;-80
2023/03/08 11:16:03;;;;;;;1.23;0.60;;;9.80;99.90;;;;;;5073161;28;20518;-79
2023/03/08 11:18:45;;;;;;;0.40;0.27;;;9.90;99.90;;;;;;5073236;28;20468;-80
2023/03/08 11:21:20;;;;;;;0.40;0.40;;;10.10;99.90;;;;;;5073275;28;20450;-79
2023/03/08 11:23:54;;;;;;;0.77;0.30;;;10.20;99.90;;;;;;5073271;28;20433;-79
2023/03/08 11:26:27;;;;;;;0.40;0.30;;;10.20;99.90;;;;;;5073248;28;20426;-79
2023/03/08 11:29:06;;;;;;;0.37;0.30;;;10.20;99.90;;;;;;5073090;28;20465;-79
2023/03/08 11:31:38;;;;;;;0.40;0.30;;;10.50;99.90;;;;;;5073121;28;20437;-79
2023/03/08 11:34:33;;;;;;;0.30;0.30;;;10.50;99.90;;;;;;5073099;28;20438;-79
2023/03/08 11:37:10;;;;;;;0.30;0.27;;;10.50;99.90;;;;;;5073095;28;20430;-79
2023/03/08 11:39:42;;;;;;;1.03;0.40;;;10.70;99.90;;;;;;5073094;28;20452;-79
2023/03/08 11:42:18;;;;;;;0.33;0.27;;;10.70;99.90;;;;;;5072739;28;20430;-79
2023/03/08 11:45:00;;;;;;;0.30;0.30;;;10.70;99.90;;;;;;5072494;28;20988;-79
2023/03/08 11:47:52;;;;;;;0.30;0.30;;;10.70;99.90;;;;;;5072942;28;20465;-79
2023/03/08 11:50:22;;;;;;;0.30;0.20;;;10.60;99.90;;;;;;5072935;28;20477;-79
2023/03/08 11:53:01;;;;;;;0.60;0.60;;;10.60;99.90;;;;;;5072599;28;20449;-80
2023/03/08 11:55:43;;;;;;;0.30;0.30;;;10.60;99.90;;;;;;5074615;28;20469;-79
2023/03/08 11:58:19;;;;;;;0.37;0.33;;;10.60;99.90;;;;;;5076662;28;20494;-79
2023/03/08 12:00:48;;;;;;;0.30;0.30;;;10.70;99.90;;;;;;5076652;28;20465;-79
2023/03/08 12:03:17;;;;;;;0.40;0.30;;;10.70;99.90;;;;;;5076513;28;20458;-79
2023/03/08 12:05:49;;;;;;;0.30;0.30;;;10.70;99.90;;;;;;5076517;28;20445;-79
2023/03/08 12:08:22;;;;;;;0.30;0.20;;;10.80;99.90;;;;;;5076446;28;20474;-79
2023/03/08 12:10:55;;;;;;;0.30;0.30;;;10.80;99.90;;;;;;5076482;28;20437;-79
2023/03/08 12:13:27;;;;;;;0.30;0.20;;;10.90;99.90;;;;;;5076902;28;20437;-79
2023/03/08 12:15:57;;;;;;;0.40;0.40;;;11.10;99.90;;;;;;5076274;28;20461;-80
2023/03/08 12:18:31;;;;;;;0.30;0.30;;;11.20;99.90;;;;;;5076218;28;20476;-79
2023/03/08 12:21:08;;;;;;;0.40;0.40;;;11.40;99.90;;;;;;5077118;28;20436;-79
2023/03/08 12:23:42;;;;;;;0.40;0.30;;;11.50;99.90;;;;;;5076194;28;20441;-79
2023/03/08 12:26:17;;;;;;;0.40;0.37;;;11.60;99.90;;;;;;5076228;28;20456;-81
2023/03/08 12:28:49;;;;;;;0.97;0.30;;;11.70;99.90;;;;;;5076021;28;20465;-81
2023/03/08 12:31:24;;;;;;;0.30;0.30;;;11.80;99.90;;;;;;5075788;28;20928;-82
2023/03/08 12:33:51;;;;;;;0.60;0.30;;;11.80;99.90;;;;;;5076721;28;20481;-81
2023/03/08 12:36:21;;;;;;;0.53;0.40;;;11.80;99.90;;;;;;5075873;28;20520;-81
2023/03/08 12:38:55;;;;;;;0.40;0.40;;;11.90;99.90;;;;;;5075836;28;20467;-81
2023/03/08 12:41:25;;;;;;;0.60;0.30;;;12.00;99.90;;;;;;5075659;28;20432;-81
2023/03/08 12:44:03;;;;;;;0.40;0.30;;;12.00;99.90;;;;;;5075516;28;20485;-81
2023/03/08 12:46:46;;;;;;;0.33;0.30;;;11.90;99.90;;;;;;5075481;28;20810;-81
2023/03/08 12:49:24;;;;;;;0.30;0.30;;;11.90;99.90;;;;;;5075697;28;20474;-81
2023/03/08 12:52:00;;;;;;;0.43;0.40;;;11.90;99.90;;;;;;5075685;28;20430;-81
2023/03/08 12:54:32;;;;;;;0.40;0.30;;;12.10;99.90;;;;;;5075348;28;20452;-81
2023/03/08 12:57:01;;;;;;;0.43;0.40;;;12.10;99.90;;;;;;5075279;28;20968;-81
2023/03/08 12:59:34;;;;;;;0.50;0.30;;;12.00;99.90;;;;;;5075166;28;20469;-81
2023/03/08 13:02:04;;;;;;;0.40;0.30;;;12.00;99.90;;;;;;5075568;28;20426;-81
2023/03/08 13:04:32;;;;;;;0.50;0.40;;;12.00;99.90;;;;;;5075515;28;20438;-81